createdAt,value
2022-09-02T04:00:32.981Z,68.64
2022-09-02T04:05:32.938Z,68.84
2022-09-02T04:10:32.863Z,69.15
2022-09-02T04:15:32.836Z,68.95
2022-09-02T04:20:32.770Z,69.04
2022-09-02T04:25:32.714Z,68.54
2022-09-02T04:30:32.664Z,68.74
2022-09-02T04:35:32.614Z,68.64
2022-09-02T04:40:32.594Z,68.54
2022-09-02T04:45:32.505Z,68.64
2022-09-02T04:50:32.445Z,68.13
2022-09-02T04:55:32.394Z,68.44
2022-09-02T05:00:32.342Z,67.73
2022-09-02T05:05:32.288Z,67.73
2022-09-02T05:10:32.233Z,67.13
2022-09-02T05:15:32.241Z,67.43
2022-09-02T05:20:32.126Z,66.82
2022-09-02T05:25:32.071Z,67.13
2022-09-02T05:30:32.025Z,67.23
2022-09-02T05:35:31.955Z,66.62
2022-09-02T05:40:31.969Z,66.32
2022-09-02T05:45:31.847Z,65.81
2022-09-02T05:50:32.238Z,63.59
2022-09-02T05:55:31.738Z,65.11
2022-09-02T06:00:31.702Z,65.21
2022-09-02T06:05:31.646Z,64.81
2022-09-02T06:10:31.573Z,64.10
2022-09-02T06:15:31.644Z,64.00
2022-09-02T06:20:31.466Z,63.59
2022-09-02T06:25:31.424Z,56.32
2022-09-02T06:30:31.357Z,52.49
2022-09-02T06:35:31.322Z,55.11
2022-09-02T06:40:31.259Z,51.18
2022-09-02T06:45:31.214Z,50.57
2022-09-02T06:50:31.140Z,52.39
2022-09-02T06:55:31.100Z,52.59
2022-09-02T07:00:31.034Z,52.69
2022-09-02T07:05:30.992Z,54.71
2022-09-02T07:10:30.944Z,59.05
2022-09-02T07:15:30.890Z,59.45
2022-09-02T07:20:30.945Z,64.00
2022-09-02T07:25:30.775Z,65.31
2022-09-02T07:30:30.799Z,65.51
2022-09-02T07:35:30.658Z,65.21
2022-09-02T07:40:30.653Z,64.00
2022-09-02T07:45:30.563Z,62.88
2022-09-02T07:50:30.508Z,62.18
2022-09-02T07:55:30.453Z,62.28
2022-09-02T08:00:30.400Z,61.37
2022-09-02T08:05:30.353Z,62.08
2022-09-02T08:10:30.284Z,62.08
2022-09-02T08:15:30.249Z,61.88
2022-09-02T08:20:30.185Z,62.38
2022-09-02T08:25:30.137Z,63.09
2022-09-02T08:30:30.081Z,63.09
2022-09-02T08:35:30.029Z,62.08
2022-09-02T08:40:29.997Z,62.48
2022-09-02T08:45:29.989Z,61.68
2022-09-02T08:50:29.866Z,62.08
2022-09-02T08:55:29.813Z,61.98
2022-09-02T09:00:29.757Z,61.88
2022-09-02T09:05:29.852Z,62.08
2022-09-02T09:10:29.662Z,62.88
2022-09-02T09:15:29.613Z,62.68
2022-09-02T09:20:29.549Z,62.68
2022-09-02T09:25:29.493Z,62.99
2022-09-02T09:30:29.443Z,62.88
2022-09-02T09:35:29.392Z,62.68
2022-09-02T09:40:29.387Z,62.08
2022-09-02T09:45:29.388Z,61.98
2022-09-02T09:50:29.236Z,61.88
2022-09-02T09:55:29.184Z,61.98
2022-09-02T10:00:29.131Z,61.98
2022-09-02T10:05:29.076Z,61.57
2022-09-02T10:10:29.038Z,61.98
2022-09-02T10:15:36.012Z,62.88
2022-09-02T10:20:28.918Z,61.47
2022-09-02T10:25:28.860Z,62.99
2022-09-02T10:30:28.817Z,63.19
2022-09-02T10:35:28.764Z,62.99
2022-09-02T10:40:28.865Z,63.09
2022-09-02T10:45:28.673Z,62.88
2022-09-02T10:50:28.674Z,63.39
2022-09-02T10:55:28.538Z,63.09
2022-09-02T11:00:28.531Z,61.77
2022-09-02T11:05:28.444Z,61.77
2022-09-02T11:10:28.378Z,62.99
2022-09-02T11:15:28.325Z,61.98
2022-09-02T11:20:28.270Z,61.77
2022-09-02T11:25:28.220Z,61.27
2022-09-02T11:30:28.169Z,59.86
2022-09-02T11:35:28.124Z,60.87
2022-09-02T11:40:34.810Z,61.98
2022-09-02T11:45:29.090Z,62.08
2022-09-02T11:50:27.953Z,62.48
2022-09-02T11:55:28.901Z,62.28
2022-09-02T12:00:27.849Z,61.98
2022-09-02T12:05:27.930Z,61.98
2022-09-02T12:10:27.747Z,61.57
2022-09-02T12:15:27.689Z,61.37
2022-09-02T12:20:27.639Z,60.57
2022-09-02T12:25:27.595Z,59.56
2022-09-02T12:30:27.538Z,62.08
2022-09-02T12:35:27.722Z,62.79
2022-09-02T12:40:29.214Z,60.16
2022-09-02T12:45:29.090Z,59.86
2022-09-02T12:50:27.322Z,61.98
2022-09-02T12:55:27.273Z,61.57
2022-09-02T13:00:27.234Z,62.59
2022-09-02T13:05:27.164Z,61.98
2022-09-02T13:10:27.115Z,62.79
2022-09-02T13:15:27.069Z,62.99
2022-09-02T13:20:27.010Z,63.59
2022-09-02T13:25:29.141Z,62.68
2022-09-02T13:30:26.944Z,61.47
2022-09-02T13:35:26.850Z,60.26
2022-09-02T13:40:26.796Z,60.36
2022-09-02T13:45:26.741Z,60.26
2022-09-02T13:50:26.702Z,61.37
2022-09-02T13:55:26.631Z,61.57
2022-09-02T14:00:26.677Z,61.68
2022-09-02T14:05:26.540Z,61.88
2022-09-02T14:10:26.487Z,61.98
2022-09-02T14:15:26.462Z,62.08
2022-09-02T14:20:26.394Z,61.88
2022-09-02T14:25:27.601Z,61.98
2022-09-02T14:30:26.282Z,61.88
2022-09-02T14:35:26.209Z,61.77
2022-09-02T14:40:26.164Z,62.18
2022-09-02T14:45:26.113Z,64.61
2022-09-02T14:50:26.055Z,63.59
2022-09-02T14:55:26.004Z,62.88
2022-09-02T15:00:25.949Z,62.59
2022-09-02T15:05:25.954Z,61.88
2022-09-02T15:10:25.842Z,61.77
2022-09-02T15:15:25.808Z,61.77
2022-09-02T15:20:25.734Z,61.47
2022-09-02T15:25:25.685Z,61.37
2022-09-02T15:30:25.630Z,61.77
2022-09-02T15:35:25.579Z,61.88
2022-09-02T15:40:25.531Z,61.68
2022-09-02T15:45:25.473Z,61.98
2022-09-02T15:50:25.424Z,61.98
2022-09-02T15:55:29.531Z,62.18
2022-09-02T16:00:27.784Z,62.59
2022-09-02T16:05:25.258Z,62.88
2022-09-02T16:10:25.204Z,63.19
2022-09-02T16:15:32.237Z,62.88
2022-09-02T16:20:25.096Z,62.99
2022-09-02T16:25:25.045Z,64.20
2022-09-02T16:30:24.994Z,64.81
2022-09-02T16:35:24.964Z,64.20
2022-09-02T16:40:24.875Z,63.49
2022-09-02T16:45:24.841Z,63.59
2022-09-02T16:50:24.782Z,64.00
2022-09-02T16:55:24.732Z,63.79
2022-09-02T17:00:24.677Z,64.81
2022-09-02T17:05:24.622Z,64.90
2022-09-02T17:10:24.568Z,64.61
2022-09-02T17:15:24.517Z,65.21
2022-09-02T17:20:24.922Z,65.71
2022-09-02T17:25:24.395Z,64.90
2022-09-02T17:30:24.413Z,64.70
2022-09-02T17:35:24.295Z,65.21
2022-09-02T17:40:24.249Z,65.31
2022-09-02T17:45:24.192Z,65.11
2022-09-02T17:50:24.135Z,65.21
2022-09-02T17:55:24.082Z,65.31
2022-09-02T18:00:24.032Z,65.41
2022-09-02T18:05:23.965Z,65.11
2022-09-02T18:10:23.921Z,65.51
2022-09-02T18:15:23.869Z,65.51
2022-09-02T18:20:23.812Z,65.21
2022-09-02T18:25:23.762Z,65.81
2022-09-02T18:30:23.761Z,65.51
2022-09-02T18:35:23.653Z,65.31
2022-09-02T18:40:23.601Z,65.41
2022-09-02T18:45:23.547Z,65.21
2022-09-02T18:50:44.945Z,65.21
2022-09-02T18:55:24.436Z,65.41
2022-09-02T19:00:23.386Z,64.81
2022-09-02T19:05:23.334Z,64.81
2022-09-02T19:10:23.275Z,65.01
2022-09-02T19:15:23.224Z,64.81
2022-09-02T19:20:23.165Z,65.01
2022-09-02T19:25:23.108Z,64.70
2022-09-02T19:30:23.051Z,65.11
2022-09-02T19:35:22.998Z,64.81
2022-09-02T19:40:22.932Z,64.90
2022-09-02T19:45:22.941Z,64.90
2022-09-02T19:50:22.823Z,65.01
2022-09-02T19:55:22.779Z,64.81
2022-09-02T20:00:22.729Z,64.50
2022-09-02T20:05:22.670Z,64.30
2022-09-02T20:10:27.647Z,63.79
2022-09-02T20:15:23.556Z,63.70
2022-09-02T20:20:22.545Z,63.79
2022-09-02T20:25:22.437Z,64.10
2022-09-02T20:30:22.412Z,64.20
2022-09-02T20:35:22.341Z,64.10
2022-09-02T20:40:22.284Z,64.00
2022-09-02T20:45:22.225Z,64.10
2022-09-02T20:50:22.292Z,64.00
2022-09-02T20:55:22.126Z,64.20
2022-09-02T21:00:22.073Z,64.20
2022-09-02T21:05:22.736Z,64.20
2022-09-02T21:10:21.961Z,64.30
2022-09-02T21:15:21.905Z,64.30
2022-09-02T21:20:21.850Z,64.10
2022-09-02T21:25:21.799Z,64.00
2022-09-02T21:30:21.743Z,63.70
2022-09-02T21:35:21.691Z,63.79
2022-09-02T21:40:21.756Z,63.49
2022-09-02T21:45:21.586Z,63.70
2022-09-02T21:50:22.425Z,63.70
2022-09-02T21:55:21.476Z,63.90
2022-09-02T22:00:21.429Z,63.70
2022-09-02T22:05:21.369Z,63.59
2022-09-02T22:10:21.319Z,63.79
2022-09-02T22:15:21.264Z,63.59
2022-09-02T22:20:21.206Z,63.59
2022-09-02T22:25:21.160Z,63.79
2022-09-02T22:30:21.102Z,63.79
2022-09-02T22:35:21.159Z,63.59
2022-09-02T22:40:20.994Z,64.30
2022-09-02T22:45:20.937Z,64.20
2022-09-02T22:50:20.891Z,63.79
2022-09-02T22:55:20.832Z,63.79
2022-09-02T23:00:20.782Z,63.79
2022-09-02T23:05:20.726Z,63.70
2022-09-02T23:10:20.674Z,63.59
2022-09-02T23:15:20.620Z,63.59
2022-09-02T23:20:20.565Z,63.90
2022-09-02T23:25:20.511Z,63.79
